sensor_id;sensor_type;location;lat;lon;timestamp;temperature;humidity
37380;DHT22;23252;-33.992;18.480;2023-08-07T00:01:13;13.20;99.90
37380;DHT22;23252;-33.992;18.480;2023-08-07T02:14:35;11.40;99.90
37380;DHT22;23252;-33.992;18.480;2023-08-07T02:17:02;11.60;99.90
37380;DHT22;23252;-33.992;18.480;2023-08-07T02:19:29;11.70;99.90
37380;DHT22;23252;-33.992;18.480;2023-08-07T02:21:56;11.70;99.90
37380;DHT22;23252;-33.992;18.480;2023-08-07T02:24:23;11.70;99.90
37380;DHT22;23252;-33.992;18.480;2023-08-07T02:26:49;11.70;99.90
37380;DHT22;23252;-33.992;18.480;2023-08-07T02:29:16;11.70;99.90
37380;DHT22;23252;-33.992;18.480;2023-08-07T02:31:43;11.70;99.90
37380;DHT22;23252;-33.992;18.480;2023-08-07T02:34:09;11.70;99.90
37380;DHT22;23252;-33.992;18.480;2023-08-07T02:36:36;11.70;99.90
37380;DHT22;23252;-33.992;18.480;2023-08-07T02:39:03;11.70;99.90
37380;DHT22;23252;-33.992;18.480;2023-08-07T02:41:30;11.60;99.90
37380;DHT22;23252;-33.992;18.480;2023-08-07T02:43:58;11.60;99.90
37380;DHT22;23252;-33.992;18.480;2023-08-07T02:46:24;11.50;99.90
37380;DHT22;23252;-33.992;18.480;2023-08-07T02:48:51;11.50;99.90
37380;DHT22;23252;-33.992;18.480;2023-08-07T02:51:19;11.50;99.90
37380;DHT22;23252;-33.992;18.480;2023-08-07T02:53:46;11.40;99.90
37380;DHT22;23252;-33.992;18.480;2023-08-07T02:56:13;11.40;99.90
37380;DHT22;23252;-33.992;18.480;2023-08-07T02:58:39;11.40;99.90
37380;DHT22;23252;-33.992;18.480;2023-08-07T03:01:06;11.40;99.90
37380;DHT22;23252;-33.992;18.480;2023-08-07T03:03:33;11.30;99.90
37380;DHT22;23252;-33.992;18.480;2023-08-07T03:06:00;11.30;99.90
37380;DHT22;23252;-33.992;18.480;2023-08-07T03:08:26;11.30;99.90
37380;DHT22;23252;-33.992;18.480;2023-08-07T03:10:54;11.20;99.90
37380;DHT22;23252;-33.992;18.480;2023-08-07T03:13:25;11.20;99.90
37380;DHT22;23252;-33.992;18.480;2023-08-07T03:15:59;11.30;99.90
37380;DHT22;23252;-33.992;18.480;2023-08-07T03:18:27;11.30;99.90
37380;DHT22;23252;-33.992;18.480;2023-08-07T03:20:55;11.40;99.90
37380;DHT22;23252;-33.992;18.480;2023-08-07T03:23:22;11.40;99.90
37380;DHT22;23252;-33.992;18.480;2023-08-07T03:25:50;11.40;99.90
37380;DHT22;23252;-33.992;18.480;2023-08-07T03:28:16;11.30;99.90
37380;DHT22;23252;-33.992;18.480;2023-08-07T03:30:43;11.30;99.90
37380;DHT22;23252;-33.992;18.480;2023-08-07T03:33:10;11.40;99.90
37380;DHT22;23252;-33.992;18.480;2023-08-07T03:35:37;11.30;99.90
37380;DHT22;23252;-33.992;18.480;2023-08-07T03:38:04;11.30;99.90
37380;DHT22;23252;-33.992;18.480;2023-08-07T03:40:30;11.30;99.90
37380;DHT22;23252;-33.992;18.480;2023-08-07T03:42:57;11.30;99.90
37380;DHT22;23252;-33.992;18.480;2023-08-07T03:45:24;11.30;99.90
37380;DHT22;23252;-33.992;18.480;2023-08-07T03:47:50;11.30;99.90
37380;DHT22;23252;-33.992;18.480;2023-08-07T03:50:17;11.30;99.90
37380;DHT22;23252;-33.992;18.480;2023-08-07T03:52:43;11.30;99.90
37380;DHT22;23252;-33.992;18.480;2023-08-07T03:55:10;11.30;99.90
37380;DHT22;23252;-33.992;18.480;2023-08-07T03:57:37;11.20;99.90
37380;DHT22;23252;-33.992;18.480;2023-08-07T04:00:04;11.20;99.90
37380;DHT22;23252;-33.992;18.480;2023-08-07T04:02:30;11.20;99.90
37380;DHT22;23252;-33.992;18.480;2023-08-07T04:04:57;11.10;99.90
37380;DHT22;23252;-33.992;18.480;2023-08-07T04:07:24;11.10;99.90
37380;DHT22;23252;-33.992;18.480;2023-08-07T04:09:50;11.10;99.90
37380;DHT22;23252;-33.992;18.480;2023-08-07T04:12:17;11.10;99.90
37380;DHT22;23252;-33.992;18.480;2023-08-07T04:14:44;11.10;99.90
37380;DHT22;23252;-33.992;18.480;2023-08-07T04:17:10;11.10;99.90
37380;DHT22;23252;-33.992;18.480;2023-08-07T04:19:37;11.10;99.90
37380;DHT22;23252;-33.992;18.480;2023-08-07T04:22:04;11.10;99.90
37380;DHT22;23252;-33.992;18.480;2023-08-07T04:24:31;11.00;99.90
37380;DHT22;23252;-33.992;18.480;2023-08-07T04:26:57;11.00;99.90
37380;DHT22;23252;-33.992;18.480;2023-08-07T04:29:25;11.00;99.90
37380;DHT22;23252;-33.992;18.480;2023-08-07T04:31:51;11.00;99.90
37380;DHT22;23252;-33.992;18.480;2023-08-07T04:34:18;11.00;99.90
37380;DHT22;23252;-33.992;18.480;2023-08-07T04:36:45;10.90;99.90
37380;DHT22;23252;-33.992;18.480;2023-08-07T04:39:11;10.90;99.90
37380;DHT22;23252;-33.992;18.480;2023-08-07T04:41:39;10.90;99.90
37380;DHT22;23252;-33.992;18.480;2023-08-07T04:44:06;10.90;99.90
37380;DHT22;23252;-33.992;18.480;2023-08-07T04:46:33;10.90;99.90
37380;DHT22;23252;-33.992;18.480;2023-08-07T04:48:59;10.80;99.90
37380;DHT22;23252;-33.992;18.480;2023-08-07T04:51:27;10.90;99.90
37380;DHT22;23252;-33.992;18.480;2023-08-07T04:53:54;10.90;99.90
37380;DHT22;23252;-33.992;18.480;2023-08-07T04:56:22;10.90;99.90
37380;DHT22;23252;-33.992;18.480;2023-08-07T04:58:49;10.80;99.90
37380;DHT22;23252;-33.992;18.480;2023-08-07T05:01:16;10.80;99.90
37380;DHT22;23252;-33.992;18.480;2023-08-07T05:03:42;10.80;99.90
37380;DHT22;23252;-33.992;18.480;2023-08-07T05:06:09;10.70;99.90
37380;DHT22;23252;-33.992;18.480;2023-08-07T05:08:36;10.80;99.90
37380;DHT22;23252;-33.992;18.480;2023-08-07T05:11:02;10.80;99.90
37380;DHT22;23252;-33.992;18.480;2023-08-07T05:13:29;10.80;99.90
37380;DHT22;23252;-33.992;18.480;2023-08-07T05:15:55;10.80;99.90
37380;DHT22;23252;-33.992;18.480;2023-08-07T05:18:22;10.80;99.90
37380;DHT22;23252;-33.992;18.480;2023-08-07T05:20:49;10.70;99.90
37380;DHT22;23252;-33.992;18.480;2023-08-07T05:23:15;10.80;99.90
37380;DHT22;23252;-33.992;18.480;2023-08-07T05:25:45;10.80;99.90
37380;DHT22;23252;-33.992;18.480;2023-08-07T05:28:13;10.80;99.90
37380;DHT22;23252;-33.992;18.480;2023-08-07T05:30:40;10.80;99.90
37380;DHT22;23252;-33.992;18.480;2023-08-07T05:33:06;10.70;99.90
37380;DHT22;23252;-33.992;18.480;2023-08-07T05:35:33;10.70;99.90
37380;DHT22;23252;-33.992;18.480;2023-08-07T05:38:00;10.70;99.90
37380;DHT22;23252;-33.992;18.480;2023-08-07T05:40:26;10.70;99.90
37380;DHT22;23252;-33.992;18.480;2023-08-07T05:42:53;10.70;99.90
37380;DHT22;23252;-33.992;18.480;2023-08-07T05:45:20;10.70;99.90
37380;DHT22;23252;-33.992;18.480;2023-08-07T05:47:46;10.70;99.90
37380;DHT22;23252;-33.992;18.480;2023-08-07T05:50:13;10.70;99.90
37380;DHT22;23252;-33.992;18.480;2023-08-07T05:52:39;10.70;99.90
37380;DHT22;23252;-33.992;18.480;2023-08-07T05:55:06;10.70;99.90
37380;DHT22;23252;-33.992;18.480;2023-08-07T05:57:33;10.70;99.90
37380;DHT22;23252;-33.992;18.480;2023-08-07T06:00:00;10.70;99.90
37380;DHT22;23252;-33.992;18.480;2023-08-07T06:02:27;10.80;99.90
37380;DHT22;23252;-33.992;18.480;2023-08-07T06:04:54;10.80;99.90
37380;DHT22;23252;-33.992;18.480;2023-08-07T06:07:20;10.90;99.90
37380;DHT22;23252;-33.992;18.480;2023-08-07T06:09:47;10.90;99.90
37380;DHT22;23252;-33.992;18.480;2023-08-07T06:12:14;11.00;99.90
37380;DHT22;23252;-33.992;18.480;2023-08-07T06:14:40;10.90;99.90
37380;DHT22;23252;-33.992;18.480;2023-08-07T06:17:07;11.00;99.90
37380;DHT22;23252;-33.992;18.480;2023-08-07T06:19:34;11.00;99.90
37380;DHT22;23252;-33.992;18.480;2023-08-07T06:22:00;11.10;99.90
37380;DHT22;23252;-33.992;18.480;2023-08-07T06:24:27;11.10;99.90
37380;DHT22;23252;-33.992;18.480;2023-08-07T06:26:54;11.20;99.90
37380;DHT22;23252;-33.992;18.480;2023-08-07T06:29:20;11.20;99.90
37380;DHT22;23252;-33.992;18.480;2023-08-07T06:31:47;11.30;99.90
37380;DHT22;23252;-33.992;18.480;2023-08-07T06:34:13;11.30;99.90
37380;DHT22;23252;-33.992;18.480;2023-08-07T06:36:40;11.40;99.90
37380;DHT22;23252;-33.992;18.480;2023-08-07T06:39:07;11.50;99.90
37380;DHT22;23252;-33.992;18.480;2023-08-07T06:41:35;11.50;99.90
37380;DHT22;23252;-33.992;18.480;2023-08-07T06:44:02;11.50;99.90
37380;DHT22;23252;-33.992;18.480;2023-08-07T06:46:28;11.50;99.90
37380;DHT22;23252;-33.992;18.480;2023-08-07T06:48:55;11.60;99.90
37380;DHT22;23252;-33.992;18.480;2023-08-07T06:51:22;11.60;99.90
37380;DHT22;23252;-33.992;18.480;2023-08-07T06:53:48;11.60;99.90
37380;DHT22;23252;-33.992;18.480;2023-08-07T06:56:15;11.60;99.90
37380;DHT22;23252;-33.992;18.480;2023-08-07T06:58:42;11.70;99.90
37380;DHT22;23252;-33.992;18.480;2023-08-07T07:01:08;11.80;99.90
37380;DHT22;23252;-33.992;18.480;2023-08-07T07:03:35;11.90;99.90
37380;DHT22;23252;-33.992;18.480;2023-08-07T07:06:02;12.00;99.90
37380;DHT22;23252;-33.992;18.480;2023-08-07T07:08:28;12.00;99.90
37380;DHT22;23252;-33.992;18.480;2023-08-07T07:10:55;12.10;99.90
37380;DHT22;23252;-33.992;18.480;2023-08-07T07:13:24;12.20;99.90
37380;DHT22;23252;-33.992;18.480;2023-08-07T07:15:55;12.20;99.90
37380;DHT22;23252;-33.992;18.480;2023-08-07T07:18:22;12.30;99.90
37380;DHT22;23252;-33.992;18.480;2023-08-07T07:20:56;12.50;99.90
37380;DHT22;23252;-33.992;18.480;2023-08-07T07:23:23;12.50;99.90
37380;DHT22;23252;-33.992;18.480;2023-08-07T07:25:50;12.60;99.90
37380;DHT22;23252;-33.992;18.480;2023-08-07T07:28:17;12.70;99.90
37380;DHT22;23252;-33.992;18.480;2023-08-07T07:30:44;12.80;99.90
37380;DHT22;23252;-33.992;18.480;2023-08-07T07:33:11;12.80;99.90
37380;DHT22;23252;-33.992;18.480;2023-08-07T07:35:39;12.80;99.90
37380;DHT22;23252;-33.992;18.480;2023-08-07T07:38:06;12.90;99.90
37380;DHT22;23252;-33.992;18.480;2023-08-07T07:40:34;12.80;99.90
37380;DHT22;23252;-33.992;18.480;2023-08-07T07:43:01;12.90;99.90
37380;DHT22;23252;-33.992;18.480;2023-08-07T07:45:27;13.10;99.90
37380;DHT22;23252;-33.992;18.480;2023-08-07T07:47:54;13.10;99.90
37380;DHT22;23252;-33.992;18.480;2023-08-07T07:50:21;13.20;99.90
37380;DHT22;23252;-33.992;18.480;2023-08-07T07:52:48;13.30;99.90
37380;DHT22;23252;-33.992;18.480;2023-08-07T07:55:15;13.30;99.90
37380;DHT22;23252;-33.992;18.480;2023-08-07T07:57:41;13.30;99.90
37380;DHT22;23252;-33.992;18.480;2023-08-07T08:00:08;13.40;99.90
37380;DHT22;23252;-33.992;18.480;2023-08-07T08:02:37;13.40;99.90
37380;DHT22;23252;-33.992;18.480;2023-08-07T08:05:03;13.40;99.90
37380;DHT22;23252;-33.992;18.480;2023-08-07T08:07:30;13.40;99.90
37380;DHT22;23252;-33.992;18.480;2023-08-07T08:09:57;13.50;99.90
37380;DHT22;23252;-33.992;18.480;2023-08-07T08:12:24;13.60;99.90
37380;DHT22;23252;-33.992;18.480;2023-08-07T08:14:51;13.60;99.90
37380;DHT22;23252;-33.992;18.480;2023-08-07T08:17:18;13.70;99.90
37380;DHT22;23252;-33.992;18.480;2023-08-07T08:19:44;13.80;99.90
37380;DHT22;23252;-33.992;18.480;2023-08-07T08:22:11;13.90;99.90
37380;DHT22;23252;-33.992;18.480;2023-08-07T08:24:38;13.90;99.90
37380;DHT22;23252;-33.992;18.480;2023-08-07T08:27:04;13.90;99.90
37380;DHT22;23252;-33.992;18.480;2023-08-07T08:29:31;13.90;99.90
37380;DHT22;23252;-33.992;18.480;2023-08-07T08:31:58;13.90;99.90
37380;DHT22;23252;-33.992;18.480;2023-08-07T08:34:26;14.00;99.90
37380;DHT22;23252;-33.992;18.480;2023-08-07T08:36:53;14.10;99.90
37380;DHT22;23252;-33.992;18.480;2023-08-07T08:39:23;14.10;99.90
37380;DHT22;23252;-33.992;18.480;2023-08-07T08:41:50;14.20;99.90
37380;DHT22;23252;-33.992;18.480;2023-08-07T08:44:20;14.20;99.90
37380;DHT22;23252;-33.992;18.480;2023-08-07T08:46:49;14.30;99.90
37380;DHT22;23252;-33.992;18.480;2023-08-07T08:49:25;14.50;99.90
37380;DHT22;23252;-33.992;18.480;2023-08-07T08:51:54;14.60;99.90
37380;DHT22;23252;-33.992;18.480;2023-08-07T08:54:21;14.50;99.90
37380;DHT22;23252;-33.992;18.480;2023-08-07T08:56:48;14.50;99.90
37380;DHT22;23252;-33.992;18.480;2023-08-07T08:59:15;14.50;99.90
37380;DHT22;23252;-33.992;18.480;2023-08-07T09:01:45;14.50;99.90
37380;DHT22;23252;-33.992;18.480;2023-08-07T09:04:12;14.40;99.90
37380;DHT22;23252;-33.992;18.480;2023-08-07T09:06:40;14.50;99.90
37380;DHT22;23252;-33.992;18.480;2023-08-07T09:09:07;14.60;99.90
37380;DHT22;23252;-33.992;18.480;2023-08-07T09:11:35;14.60;99.90
37380;DHT22;23252;-33.992;18.480;2023-08-07T09:14:02;14.60;99.90
37380;DHT22;23252;-33.992;18.480;2023-08-07T09:16:30;14.70;99.90
37380;DHT22;23252;-33.992;18.480;2023-08-07T09:18:57;14.60;99.90
37380;DHT22;23252;-33.992;18.480;2023-08-07T09:21:24;14.60;99.90
37380;DHT22;23252;-33.992;18.480;2023-08-07T09:23:53;14.50;99.90
37380;DHT22;23252;-33.992;18.480;2023-08-07T09:26:23;14.40;99.90
37380;DHT22;23252;-33.992;18.480;2023-08-07T09:28:54;14.40;99.90
37380;DHT22;23252;-33.992;18.480;2023-08-07T09:31:22;14.40;99.90
37380;DHT22;23252;-33.992;18.480;2023-08-07T09:33:52;14.40;99.90
37380;DHT22;23252;-33.992;18.480;2023-08-07T09:36:19;14.50;99.90
37380;DHT22;23252;-33.992;18.480;2023-08-07T09:38:54;14.50;99.90
37380;DHT22;23252;-33.992;18.480;2023-08-07T09:41:22;14.60;99.90
37380;DHT22;23252;-33.992;18.480;2023-08-07T09:43:48;14.60;99.90
37380;DHT22;23252;-33.992;18.480;2023-08-07T09:46:17;14.70;99.90
37380;DHT22;23252;-33.992;18.480;2023-08-07T09:48:45;14.70;99.90
37380;DHT22;23252;-33.992;18.480;2023-08-07T09:51:12;14.70;99.90
37380;DHT22;23252;-33.992;18.480;2023-08-07T09:53:39;14.80;99.90
37380;DHT22;23252;-33.992;18.480;2023-08-07T09:56:06;14.90;99.90
37380;DHT22;23252;-33.992;18.480;2023-08-07T09:58:33;15.00;99.90
37380;DHT22;23252;-33.992;18.480;2023-08-07T10:01:04;15.10;99.90
37380;DHT22;23252;-33.992;18.480;2023-08-07T10:03:31;15.20;99.90
37380;DHT22;23252;-33.992;18.480;2023-08-07T10:05:59;15.30;99.90
37380;DHT22;23252;-33.992;18.480;2023-08-07T10:08:25;15.40;99.90
37380;DHT22;23252;-33.992;18.480;2023-08-07T10:10:52;15.40;99.90
37380;DHT22;23252;-33.992;18.480;2023-08-07T10:13:19;15.50;99.90
37380;DHT22;23252;-33.992;18.480;2023-08-07T10:15:47;15.60;99.90
37380;DHT22;23252;-33.992;18.480;2023-08-07T10:18:14;15.60;99.90
37380;DHT22;23252;-33.992;18.480;2023-08-07T10:20:42;15.70;99.90
37380;DHT22;23252;-33.992;18.480;2023-08-07T10:23:11;15.80;99.90
37380;DHT22;23252;-33.992;18.480;2023-08-07T10:25:43;15.90;99.90
37380;DHT22;23252;-33.992;18.480;2023-08-07T10:28:14;16.00;99.90
37380;DHT22;23252;-33.992;18.480;2023-08-07T10:30:43;16.10;99.90
37380;DHT22;23252;-33.992;18.480;2023-08-07T10:33:13;16.20;99.90
37380;DHT22;23252;-33.992;18.480;2023-08-07T10:35:49;16.20;99.90
37380;DHT22;23252;-33.992;18.480;2023-08-07T10:38:20;16.30;99.90
37380;DHT22;23252;-33.992;18.480;2023-08-07T10:41:07;16.40;99.90
37380;DHT22;23252;-33.992;18.480;2023-08-07T10:43:44;16.40;99.90
37380;DHT22;23252;-33.992;18.480;2023-08-07T10:46:21;16.50;99.90
37380;DHT22;23252;-33.992;18.480;2023-08-07T10:48:54;16.50;99.90
37380;DHT22;23252;-33.992;18.480;2023-08-07T10:51:31;16.60;99.90
37380;DHT22;23252;-33.992;18.480;2023-08-07T10:54:00;16.60;99.90
37380;DHT22;23252;-33.992;18.480;2023-08-07T10:56:31;16.70;99.90
37380;DHT22;23252;-33.992;18.480;2023-08-07T10:58:58;16.80;99.90
37380;DHT22;23252;-33.992;18.480;2023-08-07T11:04:06;17.10;99.90
37380;DHT22;23252;-33.992;18.480;2023-08-07T11:06:34;17.20;99.90
37380;DHT22;23252;-33.992;18.480;2023-08-07T11:09:02;17.30;99.90
37380;DHT22;23252;-33.992;18.480;2023-08-07T11:11:50;17.40;99.90
37380;DHT22;23252;-33.992;18.480;2023-08-07T11:14:18;17.50;99.90
37380;DHT22;23252;-33.992;18.480;2023-08-07T11:16:47;17.60;99.90
37380;DHT22;23252;-33.992;18.480;2023-08-07T11:19:15;17.60;99.90
37380;DHT22;23252;-33.992;18.480;2023-08-07T11:21:42;17.80;99.90
37380;DHT22;23252;-33.992;18.480;2023-08-07T11:24:13;17.90;99.90
37380;DHT22;23252;-33.992;18.480;2023-08-07T11:26:41;18.00;99.90
37380;DHT22;23252;-33.992;18.480;2023-08-07T11:29:08;18.10;99.90
37380;DHT22;23252;-33.992;18.480;2023-08-07T11:31:37;18.20;99.90
37380;DHT22;23252;-33.992;18.480;2023-08-07T11:34:04;18.30;99.90
37380;DHT22;23252;-33.992;18.480;2023-08-07T11:36:31;18.40;99.90
37380;DHT22;23252;-33.992;18.480;2023-08-07T11:38:59;18.60;99.90
37380;DHT22;23252;-33.992;18.480;2023-08-07T11:41:26;18.70;99.90
37380;DHT22;23252;-33.992;18.480;2023-08-07T11:43:53;18.80;99.90
37380;DHT22;23252;-33.992;18.480;2023-08-07T11:46:19;19.00;99.90
37380;DHT22;23252;-33.992;18.480;2023-08-07T11:48:47;19.30;99.90
37380;DHT22;23252;-33.992;18.480;2023-08-07T11:51:13;19.60;99.90
37380;DHT22;23252;-33.992;18.480;2023-08-07T11:53:41;19.90;99.90
37380;DHT22;23252;-33.992;18.480;2023-08-07T11:56:13;20.30;99.90
37380;DHT22;23252;-33.992;18.480;2023-08-07T11:58:45;20.50;99.90
37380;DHT22;23252;-33.992;18.480;2023-08-07T12:01:20;20.80;99.90
37380;DHT22;23252;-33.992;18.480;2023-08-07T12:04:11;20.90;99.90
37380;DHT22;23252;-33.992;18.480;2023-08-07T12:06:38;21.10;99.90
37380;DHT22;23252;-33.992;18.480;2023-08-07T12:09:11;21.40;99.90
37380;DHT22;23252;-33.992;18.480;2023-08-07T12:11:39;21.50;99.90
37380;DHT22;23252;-33.992;18.480;2023-08-07T12:14:06;21.70;99.90
37380;DHT22;23252;-33.992;18.480;2023-08-07T12:16:34;21.70;99.90
37380;DHT22;23252;-33.992;18.480;2023-08-07T12:19:01;21.80;99.90
37380;DHT22;23252;-33.992;18.480;2023-08-07T12:21:30;21.90;99.90
37380;DHT22;23252;-33.992;18.480;2023-08-07T12:23:59;22.00;99.90
37380;DHT22;23252;-33.992;18.480;2023-08-07T12:26:26;21.90;99.90
37380;DHT22;23252;-33.992;18.480;2023-08-07T12:28:53;21.90;99.90
37380;DHT22;23252;-33.992;18.480;2023-08-07T12:31:21;21.90;99.90
37380;DHT22;23252;-33.992;18.480;2023-08-07T12:33:47;22.00;99.90
37380;DHT22;23252;-33.992;18.480;2023-08-07T12:36:14;22.00;99.90
37380;DHT22;23252;-33.992;18.480;2023-08-07T12:38:41;22.00;99.90
37380;DHT22;23252;-33.992;18.480;2023-08-07T12:41:08;22.10;99.90
37380;DHT22;23252;-33.992;18.480;2023-08-07T12:43:35;22.10;99.90
37380;DHT22;23252;-33.992;18.480;2023-08-07T12:46:01;22.00;99.90
37380;DHT22;23252;-33.992;18.480;2023-08-07T12:48:31;22.00;99.90
37380;DHT22;23252;-33.992;18.480;2023-08-07T12:50:58;21.90;99.90
37380;DHT22;23252;-33.992;18.480;2023-08-07T12:53:24;21.80;99.90
37380;DHT22;23252;-33.992;18.480;2023-08-07T12:55:51;21.80;99.90
37380;DHT22;23252;-33.992;18.480;2023-08-07T12:58:17;21.90;99.90
37380;DHT22;23252;-33.992;18.480;2023-08-07T13:00:47;22.00;99.90
37380;DHT22;23252;-33.992;18.480;2023-08-07T13:03:14;22.00;99.90
37380;DHT22;23252;-33.992;18.480;2023-08-07T13:05:40;22.10;99.90
37380;DHT22;23252;-33.992;18.480;2023-08-07T13:08:07;22.00;99.90
37380;DHT22;23252;-33.992;18.480;2023-08-07T13:10:34;21.90;99.90
37380;DHT22;23252;-33.992;18.480;2023-08-07T13:13:00;21.50;99.90
37380;DHT22;23252;-33.992;18.480;2023-08-07T13:15:27;21.10;99.90
37380;DHT22;23252;-33.992;18.480;2023-08-07T13:17:55;20.80;99.90
37380;DHT22;23252;-33.992;18.480;2023-08-07T13:20:22;20.50;99.90
37380;DHT22;23252;-33.992;18.480;2023-08-07T13:22:48;20.10;99.90
37380;DHT22;23252;-33.992;18.480;2023-08-07T13:25:15;19.80;99.90
37380;DHT22;23252;-33.992;18.480;2023-08-07T13:27:42;19.40;99.90
37380;DHT22;23252;-33.992;18.480;2023-08-07T13:30:09;19.10;99.90
37380;DHT22;23252;-33.992;18.480;2023-08-07T13:32:36;18.90;99.90
37380;DHT22;23252;-33.992;18.480;2023-08-07T13:35:03;18.80;99.90
37380;DHT22;23252;-33.992;18.480;2023-08-07T13:37:31;18.80;99.90
37380;DHT22;23252;-33.992;18.480;2023-08-07T13:39:58;18.70;99.90
37380;DHT22;23252;-33.992;18.480;2023-08-07T13:42:25;18.60;99.90
37380;DHT22;23252;-33.992;18.480;2023-08-07T13:44:58;18.50;99.90
37380;DHT22;23252;-33.992;18.480;2023-08-07T13:47:25;18.40;99.90
37380;DHT22;23252;-33.992;18.480;2023-08-07T13:49:54;18.40;99.90
37380;DHT22;23252;-33.992;18.480;2023-08-07T13:52:21;18.30;99.90
37380;DHT22;23252;-33.992;18.480;2023-08-07T13:54:48;18.30;99.90
37380;DHT22;23252;-33.992;18.480;2023-08-07T13:57:14;18.30;99.90
37380;DHT22;23252;-33.992;18.480;2023-08-07T13:59:42;18.30;99.90
37380;DHT22;23252;-33.992;18.480;2023-08-07T14:02:09;18.30;99.90
37380;DHT22;23252;-33.992;18.480;2023-08-07T14:04:35;18.20;99.90
37380;DHT22;23252;-33.992;18.480;2023-08-07T14:07:02;18.20;99.90
37380;DHT22;23252;-33.992;18.480;2023-08-07T14:09:30;18.20;99.90
37380;DHT22;23252;-33.992;18.480;2023-08-07T14:11:56;18.10;99.90
37380;DHT22;23252;-33.992;18.480;2023-08-07T14:14:23;18.00;99.90
37380;DHT22;23252;-33.992;18.480;2023-08-07T14:16:50;18.00;99.90
37380;DHT22;23252;-33.992;18.480;2023-08-07T14:19:17;18.00;99.90
37380;DHT22;23252;-33.992;18.480;2023-08-07T14:21:46;17.90;99.90
37380;DHT22;23252;-33.992;18.480;2023-08-07T14:24:13;17.90;99.90
37380;DHT22;23252;-33.992;18.480;2023-08-07T14:26:39;17.90;99.90
37380;DHT22;23252;-33.992;18.480;2023-08-07T14:29:06;17.90;99.90
37380;DHT22;23252;-33.992;18.480;2023-08-07T14:31:33;17.90;99.90
37380;DHT22;23252;-33.992;18.480;2023-08-07T14:33:59;17.90;99.90
37380;DHT22;23252;-33.992;18.480;2023-08-07T14:36:26;17.90;99.90
37380;DHT22;23252;-33.992;18.480;2023-08-07T14:38:53;17.80;99.90
37380;DHT22;23252;-33.992;18.480;2023-08-07T14:41:20;17.70;99.90
37380;DHT22;23252;-33.992;18.480;2023-08-07T14:43:46;17.70;99.90
37380;DHT22;23252;-33.992;18.480;2023-08-07T14:46:14;17.60;99.90
37380;DHT22;23252;-33.992;18.480;2023-08-07T14:48:40;17.60;99.90
37380;DHT22;23252;-33.992;18.480;2023-08-07T14:51:07;17.50;99.90
37380;DHT22;23252;-33.992;18.480;2023-08-07T14:53:34;17.50;99.90
37380;DHT22;23252;-33.992;18.480;2023-08-07T14:56:01;17.40;99.90
37380;DHT22;23252;-33.992;18.480;2023-08-07T14:58:28;17.40;99.90
37380;DHT22;23252;-33.992;18.480;2023-08-07T15:00:55;17.40;99.90
37380;DHT22;23252;-33.992;18.480;2023-08-07T15:03:22;17.30;99.90
37380;DHT22;23252;-33.992;18.480;2023-08-07T15:05:49;17.30;99.90
37380;DHT22;23252;-33.992;18.480;2023-08-07T15:08:16;17.20;99.90
37380;DHT22;23252;-33.992;18.480;2023-08-07T15:10:42;17.10;99.90
37380;DHT22;23252;-33.992;18.480;2023-08-07T15:13:09;17.00;99.90
37380;DHT22;23252;-33.992;18.480;2023-08-07T15:15:36;17.00;99.90
37380;DHT22;23252;-33.992;18.480;2023-08-07T15:18:02;17.00;99.90
37380;DHT22;23252;-33.992;18.480;2023-08-07T15:20:34;16.90;99.90
37380;DHT22;23252;-33.992;18.480;2023-08-07T15:23:01;16.80;99.90
37380;DHT22;23252;-33.992;18.480;2023-08-07T15:25:28;16.80;99.90
37380;DHT22;23252;-33.992;18.480;2023-08-07T15:27:54;16.70;99.90
37380;DHT22;23252;-33.992;18.480;2023-08-07T15:30:28;16.70;99.90
37380;DHT22;23252;-33.992;18.480;2023-08-07T15:32:56;16.60;99.90
37380;DHT22;23252;-33.992;18.480;2023-08-07T15:35:23;16.50;99.90
37380;DHT22;23252;-33.992;18.480;2023-08-07T15:37:50;16.40;99.90
37380;DHT22;23252;-33.992;18.480;2023-08-07T15:40:17;16.40;99.90
37380;DHT22;23252;-33.992;18.480;2023-08-07T15:42:43;16.30;99.90
37380;DHT22;23252;-33.992;18.480;2023-08-07T15:45:12;16.20;99.90
37380;DHT22;23252;-33.992;18.480;2023-08-07T15:47:39;16.20;99.90
37380;DHT22;23252;-33.992;18.480;2023-08-07T15:50:06;16.10;99.90
37380;DHT22;23252;-33.992;18.480;2023-08-07T15:52:33;16.00;99.90
37380;DHT22;23252;-33.992;18.480;2023-08-07T15:55:00;16.00;99.90
37380;DHT22;23252;-33.992;18.480;2023-08-07T15:57:27;15.90;99.90
37380;DHT22;23252;-33.992;18.480;2023-08-07T15:59:53;15.90;99.90
37380;DHT22;23252;-33.992;18.480;2023-08-07T16:02:20;15.90;99.90
37380;DHT22;23252;-33.992;18.480;2023-08-07T18:15:58;13.80;99.90
37380;DHT22;23252;-33.992;18.480;2023-08-07T18:18:25;14.00;99.90
37380;DHT22;23252;-33.992;18.480;2023-08-07T18:20:52;14.00;99.90
37380;DHT22;23252;-33.992;18.480;2023-08-07T18:23:18;14.00;99.90
37380;DHT22;23252;-33.992;18.480;2023-08-07T18:25:45;13.80;99.90
37380;DHT22;23252;-33.992;18.480;2023-08-07T18:28:12;13.80;99.90
37380;DHT22;23252;-33.992;18.480;2023-08-07T18:30:39;13.80;99.90
37380;DHT22;23252;-33.992;18.480;2023-08-07T18:33:12;13.80;99.90
37380;DHT22;23252;-33.992;18.480;2023-08-07T18:35:40;13.80;99.90
37380;DHT22;23252;-33.992;18.480;2023-08-07T18:38:07;13.70;99.90
37380;DHT22;23252;-33.992;18.480;2023-08-07T18:40:34;13.70;99.90
37380;DHT22;23252;-33.992;18.480;2023-08-07T18:43:05;13.70;99.90
37380;DHT22;23252;-33.992;18.480;2023-08-07T18:45:32;13.70;99.90
37380;DHT22;23252;-33.992;18.480;2023-08-07T18:47:59;13.70;99.90
37380;DHT22;23252;-33.992;18.480;2023-08-07T18:50:26;13.70;99.90
37380;DHT22;23252;-33.992;18.480;2023-08-07T18:53:02;13.60;99.90
37380;DHT22;23252;-33.992;18.480;2023-08-07T18:55:29;13.70;99.90
37380;DHT22;23252;-33.992;18.480;2023-08-07T18:57:56;13.70;99.90
37380;DHT22;23252;-33.992;18.480;2023-08-07T19:00:25;13.70;99.90
37380;DHT22;23252;-33.992;18.480;2023-08-07T19:02:52;13.70;99.90
37380;DHT22;23252;-33.992;18.480;2023-08-07T19:05:19;13.70;99.90
37380;DHT22;23252;-33.992;18.480;2023-08-07T19:07:46;13.70;99.90
37380;DHT22;23252;-33.992;18.480;2023-08-07T19:10:13;13.70;99.90
37380;DHT22;23252;-33.992;18.480;2023-08-07T19:12:43;13.70;99.90
37380;DHT22;23252;-33.992;18.480;2023-08-07T19:15:10;13.70;99.90
37380;DHT22;23252;-33.992;18.480;2023-08-07T19:17:57;13.70;99.90
37380;DHT22;23252;-33.992;18.480;2023-08-07T19:20:24;13.70;99.90
37380;DHT22;23252;-33.992;18.480;2023-08-07T19:22:51;13.70;99.90
37380;DHT22;23252;-33.992;18.480;2023-08-07T19:25:17;13.60;99.90
37380;DHT22;23252;-33.992;18.480;2023-08-07T19:27:44;13.50;99.90
37380;DHT22;23252;-33.992;18.480;2023-08-07T19:30:11;13.50;99.90